sensor_id;sensor_type;location;lat;lon;timestamp;P1;durP1;ratioP1;P2;durP2;ratioP2
60700;SDS011;46541;49.894;10.886;2023-09-08T00:02:27;6.43;;;4.93;;
60700;SDS011;46541;49.894;10.886;2023-09-08T00:04:55;6.20;;;4.85;;
60700;SDS011;46541;49.894;10.886;2023-09-08T00:07:22;6.75;;;5.00;;
60700;SDS011;46541;49.894;10.886;2023-09-08T00:09:49;7.22;;;4.70;;
60700;SDS011;46541;49.894;10.886;2023-09-08T00:12:16;11.65;;;5.03;;
60700;SDS011;46541;49.894;10.886;2023-09-08T00:14:43;8.73;;;5.18;;
60700;SDS011;46541;49.894;10.886;2023-09-08T00:17:10;7.43;;;5.13;;
60700;SDS011;46541;49.894;10.886;2023-09-08T00:19:37;10.52;;;6.25;;
60700;SDS011;46541;49.894;10.886;2023-09-08T00:22:04;7.05;;;5.13;;
60700;SDS011;46541;49.894;10.886;2023-09-08T00:24:33;9.43;;;4.90;;
60700;SDS011;46541;49.894;10.886;2023-09-08T00:27:00;6.55;;;4.75;;
60700;SDS011;46541;49.894;10.886;2023-09-08T00:29:27;6.00;;;5.00;;
60700;SDS011;46541;49.894;10.886;2023-09-08T00:31:54;7.50;;;4.95;;
60700;SDS011;46541;49.894;10.886;2023-09-08T00:34:21;6.63;;;5.20;;
60700;SDS011;46541;49.894;10.886;2023-09-08T00:36:48;6.00;;;5.20;;
60700;SDS011;46541;49.894;10.886;2023-09-08T00:39:15;8.73;;;4.72;;
60700;SDS011;46541;49.894;10.886;2023-09-08T00:41:41;6.40;;;4.82;;
60700;SDS011;46541;49.894;10.886;2023-09-08T00:44:08;10.63;;;5.63;;
60700;SDS011;46541;49.894;10.886;2023-09-08T00:46:35;9.57;;;4.90;;
60700;SDS011;46541;49.894;10.886;2023-09-08T00:49:02;7.88;;;5.30;;
60700;SDS011;46541;49.894;10.886;2023-09-08T00:51:29;6.97;;;5.00;;
60700;SDS011;46541;49.894;10.886;2023-09-08T00:53:56;8.23;;;5.07;;
60700;SDS011;46541;49.894;10.886;2023-09-08T00:56:23;8.65;;;5.22;;
60700;SDS011;46541;49.894;10.886;2023-09-08T00:58:50;6.97;;;5.38;;
60700;SDS011;46541;49.894;10.886;2023-09-08T01:01:17;7.53;;;5.63;;
60700;SDS011;46541;49.894;10.886;2023-09-08T01:03:44;6.32;;;4.57;;
60700;SDS011;46541;49.894;10.886;2023-09-08T01:06:11;7.00;;;4.68;;
60700;SDS011;46541;49.894;10.886;2023-09-08T01:08:38;5.68;;;4.63;;
60700;SDS011;46541;49.894;10.886;2023-09-08T01:11:05;6.22;;;4.82;;
60700;SDS011;46541;49.894;10.886;2023-09-08T01:13:33;7.93;;;5.18;;
60700;SDS011;46541;49.894;10.886;2023-09-08T01:16:00;6.72;;;5.13;;
60700;SDS011;46541;49.894;10.886;2023-09-08T01:18:28;6.60;;;5.63;;
60700;SDS011;46541;49.894;10.886;2023-09-08T01:26:27;7.03;;;5.25;;
60700;SDS011;46541;49.894;10.886;2023-09-08T01:28:57;9.05;;;5.45;;
60700;SDS011;46541;49.894;10.886;2023-09-08T01:31:25;5.70;;;5.05;;
60700;SDS011;46541;49.894;10.886;2023-09-08T01:33:52;6.95;;;5.43;;
60700;SDS011;46541;49.894;10.886;2023-09-08T01:36:19;6.85;;;5.70;;
60700;SDS011;46541;49.894;10.886;2023-09-08T01:38:46;9.90;;;5.93;;
60700;SDS011;46541;49.894;10.886;2023-09-08T01:41:13;7.82;;;5.57;;
60700;SDS011;46541;49.894;10.886;2023-09-08T01:43:39;8.00;;;6.50;;
60700;SDS011;46541;49.894;10.886;2023-09-08T01:46:06;9.63;;;6.05;;
60700;SDS011;46541;49.894;10.886;2023-09-08T01:48:33;9.95;;;5.50;;
60700;SDS011;46541;49.894;10.886;2023-09-08T01:51:00;10.65;;;5.38;;
60700;SDS011;46541;49.894;10.886;2023-09-08T01:53:27;10.45;;;6.00;;
60700;SDS011;46541;49.894;10.886;2023-09-08T01:55:54;12.70;;;6.05;;
60700;SDS011;46541;49.894;10.886;2023-09-08T01:58:20;10.30;;;5.93;;
60700;SDS011;46541;49.894;10.886;2023-09-08T02:00:49;9.68;;;6.32;;
60700;SDS011;46541;49.894;10.886;2023-09-08T02:03:17;12.05;;;6.88;;
60700;SDS011;46541;49.894;10.886;2023-09-08T02:05:44;9.82;;;6.03;;
60700;SDS011;46541;49.894;10.886;2023-09-08T02:08:11;8.63;;;5.88;;
60700;SDS011;46541;49.894;10.886;2023-09-08T02:10:39;11.18;;;6.25;;
60700;SDS011;46541;49.894;10.886;2023-09-08T02:13:06;8.10;;;6.10;;
60700;SDS011;46541;49.894;10.886;2023-09-08T02:15:36;9.02;;;5.90;;
60700;SDS011;46541;49.894;10.886;2023-09-08T02:18:03;9.38;;;6.32;;
60700;SDS011;46541;49.894;10.886;2023-09-08T02:20:30;8.57;;;6.13;;
60700;SDS011;46541;49.894;10.886;2023-09-08T02:22:57;7.82;;;6.05;;
60700;SDS011;46541;49.894;10.886;2023-09-08T02:25:24;7.75;;;5.85;;
60700;SDS011;46541;49.894;10.886;2023-09-08T02:27:51;8.70;;;6.32;;
60700;SDS011;46541;49.894;10.886;2023-09-08T02:30:18;9.43;;;5.65;;
60700;SDS011;46541;49.894;10.886;2023-09-08T02:32:45;9.65;;;6.13;;
60700;SDS011;46541;49.894;10.886;2023-09-08T02:35:12;10.90;;;6.30;;
60700;SDS011;46541;49.894;10.886;2023-09-08T02:37:39;7.85;;;6.70;;
60700;SDS011;46541;49.894;10.886;2023-09-08T02:40:06;12.20;;;6.68;;
60700;SDS011;46541;49.894;10.886;2023-09-08T02:42:33;11.38;;;6.05;;
60700;SDS011;46541;49.894;10.886;2023-09-08T02:45:00;8.48;;;6.15;;
60700;SDS011;46541;49.894;10.886;2023-09-08T02:47:27;8.68;;;7.10;;
60700;SDS011;46541;49.894;10.886;2023-09-08T02:49:53;8.48;;;5.80;;
60700;SDS011;46541;49.894;10.886;2023-09-08T02:52:20;9.20;;;7.05;;
60700;SDS011;46541;49.894;10.886;2023-09-08T02:54:47;11.55;;;6.70;;
60700;SDS011;46541;49.894;10.886;2023-09-08T02:57:14;11.50;;;7.03;;
60700;SDS011;46541;49.894;10.886;2023-09-08T02:59:41;9.07;;;6.00;;
60700;SDS011;46541;49.894;10.886;2023-09-08T03:02:07;12.35;;;6.70;;
60700;SDS011;46541;49.894;10.886;2023-09-08T03:04:34;13.00;;;7.07;;
60700;SDS011;46541;49.894;10.886;2023-09-08T03:07:01;11.02;;;7.10;;
60700;SDS011;46541;49.894;10.886;2023-09-08T03:09:28;9.40;;;7.15;;
60700;SDS011;46541;49.894;10.886;2023-09-08T03:11:55;15.05;;;7.75;;
60700;SDS011;46541;49.894;10.886;2023-09-08T03:14:21;9.60;;;7.18;;
60700;SDS011;46541;49.894;10.886;2023-09-08T03:16:48;12.25;;;7.63;;
60700;SDS011;46541;49.894;10.886;2023-09-08T03:19:15;9.80;;;6.05;;
60700;SDS011;46541;49.894;10.886;2023-09-08T03:21:42;8.30;;;6.68;;
60700;SDS011;46541;49.894;10.886;2023-09-08T03:24:08;10.98;;;6.60;;
60700;SDS011;46541;49.894;10.886;2023-09-08T03:26:35;12.15;;;6.55;;
60700;SDS011;46541;49.894;10.886;2023-09-08T03:29:02;11.13;;;6.20;;
60700;SDS011;46541;49.894;10.886;2023-09-08T03:31:29;9.65;;;6.22;;
60700;SDS011;46541;49.894;10.886;2023-09-08T03:33:56;10.95;;;6.75;;
60700;SDS011;46541;49.894;10.886;2023-09-08T03:36:23;9.15;;;6.78;;
60700;SDS011;46541;49.894;10.886;2023-09-08T03:38:51;8.70;;;6.90;;
60700;SDS011;46541;49.894;10.886;2023-09-08T03:41:17;11.60;;;6.60;;
60700;SDS011;46541;49.894;10.886;2023-09-08T03:43:44;8.15;;;6.70;;
60700;SDS011;46541;49.894;10.886;2023-09-08T03:46:11;12.05;;;6.80;;
60700;SDS011;46541;49.894;10.886;2023-09-08T03:48:38;9.55;;;7.00;;
60700;SDS011;46541;49.894;10.886;2023-09-08T03:51:04;10.32;;;7.03;;
60700;SDS011;46541;49.894;10.886;2023-09-08T03:53:31;11.35;;;7.07;;
60700;SDS011;46541;49.894;10.886;2023-09-08T03:55:58;11.38;;;6.80;;
60700;SDS011;46541;49.894;10.886;2023-09-08T03:58:25;11.63;;;6.97;;
60700;SDS011;46541;49.894;10.886;2023-09-08T04:00:52;8.80;;;6.88;;
60700;SDS011;46541;49.894;10.886;2023-09-08T04:03:19;15.85;;;7.65;;
60700;SDS011;46541;49.894;10.886;2023-09-08T04:05:46;10.68;;;7.43;;
60700;SDS011;46541;49.894;10.886;2023-09-08T04:08:13;9.18;;;6.63;;
60700;SDS011;46541;49.894;10.886;2023-09-08T04:10:39;10.75;;;7.25;;
60700;SDS011;46541;49.894;10.886;2023-09-08T04:13:06;9.35;;;6.95;;
60700;SDS011;46541;49.894;10.886;2023-09-08T04:15:33;9.15;;;6.80;;
60700;SDS011;46541;49.894;10.886;2023-09-08T04:18:00;11.48;;;7.55;;
60700;SDS011;46541;49.894;10.886;2023-09-08T04:20:27;11.98;;;6.97;;
60700;SDS011;46541;49.894;10.886;2023-09-08T04:22:53;13.57;;;7.50;;
60700;SDS011;46541;49.894;10.886;2023-09-08T04:25:21;10.80;;;7.82;;
60700;SDS011;46541;49.894;10.886;2023-09-08T04:27:48;13.45;;;7.63;;
60700;SDS011;46541;49.894;10.886;2023-09-08T04:30:14;13.68;;;7.70;;
60700;SDS011;46541;49.894;10.886;2023-09-08T04:32:41;25.25;;;7.78;;
60700;SDS011;46541;49.894;10.886;2023-09-08T04:35:08;10.25;;;7.82;;
60700;SDS011;46541;49.894;10.886;2023-09-08T04:37:35;10.48;;;7.25;;
60700;SDS011;46541;49.894;10.886;2023-09-08T04:40:03;9.55;;;7.55;;
60700;SDS011;46541;49.894;10.886;2023-09-08T04:42:30;9.38;;;7.30;;
60700;SDS011;46541;49.894;10.886;2023-09-08T04:44:57;8.35;;;7.38;;
60700;SDS011;46541;49.894;10.886;2023-09-08T04:47:24;11.43;;;7.82;;
60700;SDS011;46541;49.894;10.886;2023-09-08T04:49:50;10.90;;;7.32;;
60700;SDS011;46541;49.894;10.886;2023-09-08T04:52:17;13.30;;;7.90;;
60700;SDS011;46541;49.894;10.886;2023-09-08T04:54:44;10.32;;;8.00;;
60700;SDS011;46541;49.894;10.886;2023-09-08T04:57:11;13.15;;;8.40;;
60700;SDS011;46541;49.894;10.886;2023-09-08T04:59:49;15.95;;;8.35;;
60700;SDS011;46541;49.894;10.886;2023-09-08T05:02:16;10.65;;;8.20;;
60700;SDS011;46541;49.894;10.886;2023-09-08T05:04:44;11.95;;;8.48;;
60700;SDS011;46541;49.894;10.886;2023-09-08T05:07:11;15.93;;;8.13;;
60700;SDS011;46541;49.894;10.886;2023-09-08T05:09:39;12.73;;;8.73;;
60700;SDS011;46541;49.894;10.886;2023-09-08T05:12:06;8.85;;;7.45;;
60700;SDS011;46541;49.894;10.886;2023-09-08T05:14:33;12.18;;;8.35;;
60700;SDS011;46541;49.894;10.886;2023-09-08T05:17:00;12.57;;;8.35;;
60700;SDS011;46541;49.894;10.886;2023-09-08T05:19:27;10.85;;;8.05;;
60700;SDS011;46541;49.894;10.886;2023-09-08T05:21:54;17.15;;;8.15;;
60700;SDS011;46541;49.894;10.886;2023-09-08T05:24:21;18.10;;;8.35;;
60700;SDS011;46541;49.894;10.886;2023-09-08T05:26:48;12.30;;;8.40;;
60700;SDS011;46541;49.894;10.886;2023-09-08T05:29:15;11.13;;;8.35;;
60700;SDS011;46541;49.894;10.886;2023-09-08T05:31:41;10.35;;;8.23;;
60700;SDS011;46541;49.894;10.886;2023-09-08T05:34:08;11.65;;;8.05;;
60700;SDS011;46541;49.894;10.886;2023-09-08T05:36:35;9.88;;;7.35;;
60700;SDS011;46541;49.894;10.886;2023-09-08T05:39:04;10.70;;;8.52;;
60700;SDS011;46541;49.894;10.886;2023-09-08T05:41:31;14.13;;;8.40;;
60700;SDS011;46541;49.894;10.886;2023-09-08T05:44:00;13.32;;;9.00;;
60700;SDS011;46541;49.894;10.886;2023-09-08T05:46:27;14.45;;;9.05;;
60700;SDS011;46541;49.894;10.886;2023-09-08T05:48:54;14.68;;;9.52;;
60700;SDS011;46541;49.894;10.886;2023-09-08T05:51:21;12.10;;;8.52;;
60700;SDS011;46541;49.894;10.886;2023-09-08T05:53:48;16.48;;;9.05;;
60700;SDS011;46541;49.894;10.886;2023-09-08T05:56:15;13.85;;;8.70;;
60700;SDS011;46541;49.894;10.886;2023-09-08T05:58:44;15.77;;;9.70;;
60700;SDS011;46541;49.894;10.886;2023-09-08T06:01:11;14.02;;;9.00;;
60700;SDS011;46541;49.894;10.886;2023-09-08T06:03:37;17.13;;;8.93;;
60700;SDS011;46541;49.894;10.886;2023-09-08T06:06:04;17.35;;;9.27;;
60700;SDS011;46541;49.894;10.886;2023-09-08T06:08:31;13.48;;;8.50;;
60700;SDS011;46541;49.894;10.886;2023-09-08T06:10:58;13.80;;;8.88;;
60700;SDS011;46541;49.894;10.886;2023-09-08T06:13:25;13.90;;;8.27;;
60700;SDS011;46541;49.894;10.886;2023-09-08T06:15:53;17.70;;;9.18;;
60700;SDS011;46541;49.894;10.886;2023-09-08T06:18:19;17.95;;;9.05;;
60700;SDS011;46541;49.894;10.886;2023-09-08T06:20:47;23.95;;;9.32;;
60700;SDS011;46541;49.894;10.886;2023-09-08T06:23:14;21.17;;;10.38;;
60700;SDS011;46541;49.894;10.886;2023-09-08T06:25:40;15.10;;;9.30;;
60700;SDS011;46541;49.894;10.886;2023-09-08T06:28:07;14.00;;;9.18;;
60700;SDS011;46541;49.894;10.886;2023-09-08T06:30:34;20.77;;;9.88;;
60700;SDS011;46541;49.894;10.886;2023-09-08T06:33:01;15.73;;;10.05;;
60700;SDS011;46541;49.894;10.886;2023-09-08T06:35:29;13.07;;;9.48;;
60700;SDS011;46541;49.894;10.886;2023-09-08T06:37:56;12.20;;;8.30;;
60700;SDS011;46541;49.894;10.886;2023-09-08T06:40:24;14.40;;;8.60;;
60700;SDS011;46541;49.894;10.886;2023-09-08T06:42:50;12.85;;;8.07;;
60700;SDS011;46541;49.894;10.886;2023-09-08T06:45:17;14.05;;;9.93;;
60700;SDS011;46541;49.894;10.886;2023-09-08T06:47:44;22.52;;;10.45;;
60700;SDS011;46541;49.894;10.886;2023-09-08T06:50:11;14.88;;;9.80;;
60700;SDS011;46541;49.894;10.886;2023-09-08T06:52:38;12.65;;;7.97;;
60700;SDS011;46541;49.894;10.886;2023-09-08T06:55:05;12.93;;;7.82;;
60700;SDS011;46541;49.894;10.886;2023-09-08T06:57:32;12.63;;;8.38;;
60700;SDS011;46541;49.894;10.886;2023-09-08T06:59:59;14.20;;;7.95;;
60700;SDS011;46541;49.894;10.886;2023-09-08T07:02:25;11.68;;;7.53;;
60700;SDS011;46541;49.894;10.886;2023-09-08T07:04:53;10.98;;;7.97;;
60700;SDS011;46541;49.894;10.886;2023-09-08T07:07:20;10.45;;;7.60;;
60700;SDS011;46541;49.894;10.886;2023-09-08T07:09:49;9.45;;;6.60;;
60700;SDS011;46541;49.894;10.886;2023-09-08T07:12:15;14.40;;;8.23;;
60700;SDS011;46541;49.894;10.886;2023-09-08T07:14:42;16.95;;;8.45;;
60700;SDS011;46541;49.894;10.886;2023-09-08T07:17:09;14.27;;;8.55;;
60700;SDS011;46541;49.894;10.886;2023-09-08T07:19:36;13.57;;;8.20;;
60700;SDS011;46541;49.894;10.886;2023-09-08T07:22:02;14.80;;;8.32;;
60700;SDS011;46541;49.894;10.886;2023-09-08T07:24:29;18.88;;;8.73;;
60700;SDS011;46541;49.894;10.886;2023-09-08T07:26:56;11.77;;;7.63;;
60700;SDS011;46541;49.894;10.886;2023-09-08T07:29:23;15.80;;;7.28;;
60700;SDS011;46541;49.894;10.886;2023-09-08T07:31:50;14.38;;;7.45;;
60700;SDS011;46541;49.894;10.886;2023-09-08T07:34:17;16.67;;;7.90;;
60700;SDS011;46541;49.894;10.886;2023-09-08T07:36:44;9.80;;;7.13;;
60700;SDS011;46541;49.894;10.886;2023-09-08T07:39:11;11.82;;;7.85;;
60700;SDS011;46541;49.894;10.886;2023-09-08T07:41:37;11.20;;;7.68;;
60700;SDS011;46541;49.894;10.886;2023-09-08T07:44:06;9.90;;;6.75;;
60700;SDS011;46541;49.894;10.886;2023-09-08T07:46:33;13.95;;;7.15;;
60700;SDS011;46541;49.894;10.886;2023-09-08T07:49:00;9.50;;;6.10;;
60700;SDS011;46541;49.894;10.886;2023-09-08T07:51:27;9.57;;;7.03;;
60700;SDS011;46541;49.894;10.886;2023-09-08T07:53:54;10.82;;;6.88;;
60700;SDS011;46541;49.894;10.886;2023-09-08T07:56:22;13.38;;;7.22;;
60700;SDS011;46541;49.894;10.886;2023-09-08T07:58:49;10.52;;;6.43;;
60700;SDS011;46541;49.894;10.886;2023-09-08T08:01:15;8.30;;;5.88;;
60700;SDS011;46541;49.894;10.886;2023-09-08T08:03:42;11.30;;;6.03;;
60700;SDS011;46541;49.894;10.886;2023-09-08T08:06:09;8.07;;;6.28;;
60700;SDS011;46541;49.894;10.886;2023-09-08T08:08:36;7.78;;;5.60;;
60700;SDS011;46541;49.894;10.886;2023-09-08T08:11:11;8.38;;;5.75;;
60700;SDS011;46541;49.894;10.886;2023-09-08T08:13:39;8.30;;;6.55;;
60700;SDS011;46541;49.894;10.886;2023-09-08T08:16:06;9.27;;;6.55;;
60700;SDS011;46541;49.894;10.886;2023-09-08T08:18:33;7.57;;;5.97;;
60700;SDS011;46541;49.894;10.886;2023-09-08T08:21:00;11.95;;;5.90;;
60700;SDS011;46541;49.894;10.886;2023-09-08T08:23:29;8.77;;;5.13;;
60700;SDS011;46541;49.894;10.886;2023-09-08T08:25:58;8.63;;;5.68;;
60700;SDS011;46541;49.894;10.886;2023-09-08T08:28:25;11.05;;;6.22;;
60700;SDS011;46541;49.894;10.886;2023-09-08T08:30:51;8.57;;;5.60;;
60700;SDS011;46541;49.894;10.886;2023-09-08T08:33:18;7.97;;;5.88;;
60700;SDS011;46541;49.894;10.886;2023-09-08T08:35:50;7.22;;;4.95;;
60700;SDS011;46541;49.894;10.886;2023-09-08T08:38:18;7.03;;;5.65;;
60700;SDS011;46541;49.894;10.886;2023-09-08T08:40:45;10.73;;;5.53;;
60700;SDS011;46541;49.894;10.886;2023-09-08T08:43:12;14.77;;;5.60;;
60700;SDS011;46541;49.894;10.886;2023-09-08T08:45:39;9.65;;;5.18;;
60700;SDS011;46541;49.894;10.886;2023-09-08T08:48:08;5.80;;;4.65;;
60700;SDS011;46541;49.894;10.886;2023-09-08T08:50:35;10.90;;;5.78;;
60700;SDS011;46541;49.894;10.886;2023-09-08T08:53:03;8.00;;;5.93;;
60700;SDS011;46541;49.894;10.886;2023-09-08T08:55:30;8.23;;;5.07;;
60700;SDS011;46541;49.894;10.886;2023-09-08T08:58:03;8.93;;;5.13;;
60700;SDS011;46541;49.894;10.886;2023-09-08T09:00:33;9.10;;;4.57;;
60700;SDS011;46541;49.894;10.886;2023-09-08T09:03:04;7.15;;;5.85;;
60700;SDS011;46541;49.894;10.886;2023-09-08T09:05:40;10.98;;;5.65;;
60700;SDS011;46541;49.894;10.886;2023-09-08T09:08:28;9.48;;;5.00;;
60700;SDS011;46541;49.894;10.886;2023-09-08T09:10:55;5.88;;;4.95;;
60700;SDS011;46541;49.894;10.886;2023-09-08T09:13:22;9.23;;;4.95;;
60700;SDS011;46541;49.894;10.886;2023-09-08T09:15:49;6.60;;;4.90;;
60700;SDS011;46541;49.894;10.886;2023-09-08T09:18:16;8.68;;;5.70;;
60700;SDS011;46541;49.894;10.886;2023-09-08T09:20:53;9.70;;;6.00;;
60700;SDS011;46541;49.894;10.886;2023-09-08T09:23:29;10.23;;;4.30;;
60700;SDS011;46541;49.894;10.886;2023-09-08T09:26:01;11.10;;;5.07;;
60700;SDS011;46541;49.894;10.886;2023-09-08T09:28:32;6.80;;;4.13;;
60700;SDS011;46541;49.894;10.886;2023-09-08T09:30:59;8.68;;;5.05;;
60700;SDS011;46541;49.894;10.886;2023-09-08T09:33:27;5.75;;;3.88;;
60700;SDS011;46541;49.894;10.886;2023-09-08T09:35:56;7.32;;;5.03;;
60700;SDS011;46541;49.894;10.886;2023-09-08T09:38:25;11.00;;;4.38;;
60700;SDS011;46541;49.894;10.886;2023-09-08T09:40:53;7.75;;;4.63;;
60700;SDS011;46541;49.894;10.886;2023-09-08T09:43:21;5.68;;;4.20;;
60700;SDS011;46541;49.894;10.886;2023-09-08T09:45:51;10.50;;;4.70;;
60700;SDS011;46541;49.894;10.886;2023-09-08T09:48:19;5.80;;;4.35;;
60700;SDS011;46541;49.894;10.886;2023-09-08T09:50:47;12.45;;;7.47;;
60700;SDS011;46541;49.894;10.886;2023-09-08T09:53:15;7.47;;;5.30;;
60700;SDS011;46541;49.894;10.886;2023-09-08T09:55:43;6.63;;;5.93;;
60700;SDS011;46541;49.894;10.886;2023-09-08T09:58:11;5.85;;;4.30;;
60700;SDS011;46541;49.894;10.886;2023-09-08T10:00:41;6.82;;;3.92;;
60700;SDS011;46541;49.894;10.886;2023-09-08T10:03:11;5.80;;;4.38;;
60700;SDS011;46541;49.894;10.886;2023-09-08T10:05:40;6.85;;;3.97;;
60700;SDS011;46541;49.894;10.886;2023-09-08T10:08:06;4.35;;;3.85;;
60700;SDS011;46541;49.894;10.886;2023-09-08T10:10:33;6.07;;;4.20;;
60700;SDS011;46541;49.894;10.886;2023-09-08T10:13:05;5.03;;;3.78;;
60700;SDS011;46541;49.894;10.886;2023-09-08T10:15:33;4.57;;;4.00;;
60700;SDS011;46541;49.894;10.886;2023-09-08T10:18:02;5.55;;;4.10;;
60700;SDS011;46541;49.894;10.886;2023-09-08T10:20:31;4.63;;;3.90;;
60700;SDS011;46541;49.894;10.886;2023-09-08T10:23:48;5.20;;;3.97;;
60700;SDS011;46541;49.894;10.886;2023-09-08T10:25:53;5.88;;;4.55;;
60700;SDS011;46541;49.894;10.886;2023-09-08T10:28:29;6.18;;;3.72;;
60700;SDS011;46541;49.894;10.886;2023-09-08T10:30:58;10.20;;;4.03;;
60700;SDS011;46541;49.894;10.886;2023-09-08T10:33:26;5.75;;;3.95;;
60700;SDS011;46541;49.894;10.886;2023-09-08T10:35:54;4.82;;;3.70;;
60700;SDS011;46541;49.894;10.886;2023-09-08T10:40:52;5.10;;;4.32;;
60700;SDS011;46541;49.894;10.886;2023-09-08T10:43:20;7.55;;;5.25;;
60700;SDS011;46541;49.894;10.886;2023-09-08T10:45:47;7.88;;;4.57;;
60700;SDS011;46541;49.894;10.886;2023-09-08T10:48:14;6.30;;;4.70;;
60700;SDS011;46541;49.894;10.886;2023-09-08T10:50:42;6.80;;;4.35;;
60700;SDS011;46541;49.894;10.886;2023-09-08T10:55:46;11.98;;;4.38;;
60700;SDS011;46541;49.894;10.886;2023-09-08T10:58:32;6.70;;;4.85;;
60700;SDS011;46541;49.894;10.886;2023-09-08T11:01:02;6.88;;;4.50;;
60700;SDS011;46541;49.894;10.886;2023-09-08T11:06:04;7.38;;;4.53;;
60700;SDS011;46541;49.894;10.886;2023-09-08T11:08:40;5.75;;;3.97;;
60700;SDS011;46541;49.894;10.886;2023-09-08T11:11:12;9.35;;;4.35;;
60700;SDS011;46541;49.894;10.886;2023-09-08T11:13:40;9.02;;;4.97;;
60700;SDS011;46541;49.894;10.886;2023-09-08T11:16:08;6.05;;;4.40;;
60700;SDS011;46541;49.894;10.886;2023-09-08T11:18:35;4.70;;;4.07;;
60700;SDS011;46541;49.894;10.886;2023-09-08T11:21:04;4.97;;;4.45;;
60700;SDS011;46541;49.894;10.886;2023-09-08T11:23:34;5.75;;;4.25;;
60700;SDS011;46541;49.894;10.886;2023-09-08T11:26:02;5.60;;;4.43;;
60700;SDS011;46541;49.894;10.886;2023-09-08T11:28:28;8.60;;;4.18;;
60700;SDS011;46541;49.894;10.886;2023-09-08T11:30:55;7.85;;;4.70;;
60700;SDS011;46541;49.894;10.886;2023-09-08T11:33:23;5.50;;;4.45;;
60700;SDS011;46541;49.894;10.886;2023-09-08T11:35:52;7.97;;;4.72;;
60700;SDS011;46541;49.894;10.886;2023-09-08T11:38:25;4.95;;;3.75;;
60700;SDS011;46541;49.894;10.886;2023-09-08T11:40:56;8.68;;;4.70;;
60700;SDS011;46541;49.894;10.886;2023-09-08T11:43:27;10.15;;;4.07;;
60700;SDS011;46541;49.894;10.886;2023-09-08T11:45:55;13.13;;;4.82;;
60700;SDS011;46541;49.894;10.886;2023-09-08T11:48:23;10.32;;;4.90;;
60700;SDS011;46541;49.894;10.886;2023-09-08T11:50:54;6.85;;;4.03;;
60700;SDS011;46541;49.894;10.886;2023-09-08T11:53:21;8.35;;;4.43;;
60700;SDS011;46541;49.894;10.886;2023-09-08T11:55:49;5.20;;;3.97;;
60700;SDS011;46541;49.894;10.886;2023-09-08T11:58:16;5.15;;;3.90;;
60700;SDS011;46541;49.894;10.886;2023-09-08T12:00:45;6.97;;;4.90;;
60700;SDS011;46541;49.894;10.886;2023-09-08T12:03:14;8.90;;;4.47;;
60700;SDS011;46541;49.894;10.886;2023-09-08T12:05:50;7.95;;;4.65;;
60700;SDS011;46541;49.894;10.886;2023-09-08T12:08:18;7.95;;;4.72;;
60700;SDS011;46541;49.894;10.886;2023-09-08T12:10:45;5.70;;;4.28;;
60700;SDS011;46541;49.894;10.886;2023-09-08T12:13:11;7.20;;;4.45;;
60700;SDS011;46541;49.894;10.886;2023-09-08T12:15:40;5.47;;;4.28;;
60700;SDS011;46541;49.894;10.886;2023-09-08T12:18:12;8.98;;;4.43;;
60700;SDS011;46541;49.894;10.886;2023-09-08T12:20:42;8.98;;;4.40;;
60700;SDS011;46541;49.894;10.886;2023-09-08T12:23:19;5.75;;;4.13;;
60700;SDS011;46541;49.894;10.886;2023-09-08T12:25:51;10.98;;;4.25;;
60700;SDS011;46541;49.894;10.886;2023-09-08T12:28:19;4.82;;;3.85;;
60700;SDS011;46541;49.894;10.886;2023-09-08T12:30:50;5.63;;;4.40;;
60700;SDS011;46541;49.894;10.886;2023-09-08T12:33:19;6.32;;;3.85;;
60700;SDS011;46541;49.894;10.886;2023-09-08T12:35:47;6.80;;;3.85;;
60700;SDS011;46541;49.894;10.886;2023-09-08T12:38:14;6.30;;;4.45;;
60700;SDS011;46541;49.894;10.886;2023-09-08T12:40:41;12.95;;;3.83;;
60700;SDS011;46541;49.894;10.886;2023-09-08T12:43:08;5.97;;;3.70;;
60700;SDS011;46541;49.894;10.886;2023-09-08T12:45:52;9.50;;;4.32;;
60700;SDS011;46541;49.894;10.886;2023-09-08T12:48:19;6.45;;;3.95;;
60700;SDS011;46541;49.894;10.886;2023-09-08T12:50:46;7.00;;;4.32;;
60700;SDS011;46541;49.894;10.886;2023-09-08T12:53:15;6.63;;;4.72;;
60700;SDS011;46541;49.894;10.886;2023-09-08T12:55:46;4.68;;;4.07;;
60700;SDS011;46541;49.894;10.886;2023-09-08T12:58:13;5.22;;;3.72;;
60700;SDS011;46541;49.894;10.886;2023-09-08T13:00:40;6.82;;;3.92;;
60700;SDS011;46541;49.894;10.886;2023-09-08T13:03:07;4.85;;;3.90;;
60700;SDS011;46541;49.894;10.886;2023-09-08T13:05:34;7.05;;;3.90;;
60700;SDS011;46541;49.894;10.886;2023-09-08T13:08:00;7.28;;;5.97;;
60700;SDS011;46541;49.894;10.886;2023-09-08T13:10:27;4.88;;;4.25;;
60700;SDS011;46541;49.894;10.886;2023-09-08T13:12:54;5.20;;;4.20;;
60700;SDS011;46541;49.894;10.886;2023-09-08T13:15:22;12.80;;;4.93;;
60700;SDS011;46541;49.894;10.886;2023-09-08T13:17:49;6.05;;;4.43;;
60700;SDS011;46541;49.894;10.886;2023-09-08T13:20:17;5.82;;;3.88;;
60700;SDS011;46541;49.894;10.886;2023-09-08T13:22:44;9.85;;;6.15;;
60700;SDS011;46541;49.894;10.886;2023-09-08T13:25:11;7.60;;;4.47;;
60700;SDS011;46541;49.894;10.886;2023-09-08T13:27:40;5.30;;;4.72;;
60700;SDS011;46541;49.894;10.886;2023-09-08T13:30:17;6.70;;;4.30;;
60700;SDS011;46541;49.894;10.886;2023-09-08T13:32:45;7.20;;;3.85;;
60700;SDS011;46541;49.894;10.886;2023-09-08T13:35:12;8.85;;;5.55;;
60700;SDS011;46541;49.894;10.886;2023-09-08T13:37:39;14.32;;;11.05;;
60700;SDS011;46541;49.894;10.886;2023-09-08T13:40:06;5.53;;;4.45;;
60700;SDS011;46541;49.894;10.886;2023-09-08T13:42:35;6.38;;;4.53;;
60700;SDS011;46541;49.894;10.886;2023-09-08T13:45:02;6.32;;;4.43;;
60700;SDS011;46541;49.894;10.886;2023-09-08T13:47:29;5.57;;;4.20;;
60700;SDS011;46541;49.894;10.886;2023-09-08T13:49:57;8.38;;;3.88;;
60700;SDS011;46541;49.894;10.886;2023-09-08T13:52:27;6.35;;;3.95;;
60700;SDS011;46541;49.894;10.886;2023-09-08T13:54:58;6.28;;;3.60;;
60700;SDS011;46541;49.894;10.886;2023-09-08T13:57:27;6.55;;;3.45;;
60700;SDS011;46541;49.894;10.886;2023-09-08T13:59:55;7.07;;;3.75;;
60700;SDS011;46541;49.894;10.886;2023-09-08T14:02:23;8.75;;;5.28;;
60700;SDS011;46541;49.894;10.886;2023-09-08T14:04:53;10.07;;;4.22;;
60700;SDS011;46541;49.894;10.886;2023-09-08T14:07:23;6.88;;;4.78;;
60700;SDS011;46541;49.894;10.886;2023-09-08T14:10:00;4.32;;;3.60;;
60700;SDS011;46541;49.894;10.886;2023-09-08T14:12:41;5.18;;;4.20;;
60700;SDS011;46541;49.894;10.886;2023-09-08T14:15:08;7.07;;;4.20;;
60700;SDS011;46541;49.894;10.886;2023-09-08T14:17:35;5.97;;;4.43;;
60700;SDS011;46541;49.894;10.886;2023-09-08T14:20:01;9.07;;;3.95;;
60700;SDS011;46541;49.894;10.886;2023-09-08T14:22:31;4.63;;;3.50;;
60700;SDS011;46541;49.894;10.886;2023-09-08T14:24:58;5.35;;;3.90;;
60700;SDS011;46541;49.894;10.886;2023-09-08T14:27:25;6.55;;;3.70;;
60700;SDS011;46541;49.894;10.886;2023-09-08T14:29:52;6.47;;;3.38;;
60700;SDS011;46541;49.894;10.886;2023-09-08T14:32:21;5.57;;;3.20;;
60700;SDS011;46541;49.894;10.886;2023-09-08T14:34:48;6.28;;;3.47;;
60700;SDS011;46541;49.894;10.886;2023-09-08T14:37:15;8.18;;;3.92;;
60700;SDS011;46541;49.894;10.886;2023-09-08T14:39:42;4.65;;;3.75;;
60700;SDS011;46541;49.894;10.886;2023-09-08T14:42:08;4.10;;;3.15;;
60700;SDS011;46541;49.894;10.886;2023-09-08T14:44:35;6.65;;;3.38;;
60700;SDS011;46541;49.894;10.886;2023-09-08T14:47:02;6.82;;;3.50;;